Time;durP1;ratioP1;P1;durP2;ratioP2;P2;SDS_P1;SDS_P2;PMS_P1;PMS_P2;Temp;Humidity;BMP_temperature;BMP_pressure;BME280_temperature;BME280_humidity;BME280_pressure;Samples;Min_cycle;Max_cycle;Signal;HPM_P1;HPM_P2
2022/07/29 00:02:06;;;;;;;;;;;;;;;19.26;25.36;95513.97;5006768;28;19985;-57
2022/07/29 00:04:33;;;;;;;;;;;;;;;19.19;25.56;95507.88;5009430;28;19924;-56
2022/07/29 00:06:59;;;;;;;;;;;;;;;19.31;26.21;95511.41;5009513;28;19925;-58
2022/07/29 00:09:24;;;;;;;;;;;;;;;19.34;25.19;95504.69;5008681;28;19921;-58
2022/07/29 00:11:49;;;;;;;;;;;;;;;19.28;25.17;95503.78;5005995;28;19952;-56
2022/07/29 00:14:14;;;;;;;;;;;;;;;19.25;25.38;95506.94;4986729;28;19975;-59
2022/07/29 00:16:40;;;;;;;;;;;;;;;19.13;25.34;95503.41;5007102;28;19927;-57
2022/07/29 00:19:05;;;;;;;;;;;;;;;19.20;25.32;95506.81;5005065;28;20027;-56
2022/07/29 00:21:30;;;;;;;;;;;;;;;19.03;26.38;95504.00;5007037;28;19939;-57
2022/07/29 00:23:55;;;;;;;;;;;;;;;19.13;25.58;95508.81;5014152;28;19976;-58
2022/07/29 00:26:21;;;;;;;;;;;;;;;18.76;26.69;95515.28;5018619;28;20306;-57
2022/07/29 00:28:46;;;;;;;;;;;;;;;18.99;25.50;95514.44;5010478;28;19933;-56
2022/07/29 00:31:11;;;;;;;;;;;;;;;18.97;25.97;95516.56;5006380;28;19917;-57
2022/07/29 00:33:36;;;;;;;;;;;;;;;19.10;26.73;95502.00;4992980;28;20012;-58
2022/07/29 00:36:02;;;;;;;;;;;;;;;19.00;26.09;95504.50;5011627;28;19921;-57
2022/07/29 00:38:27;;;;;;;;;;;;;;;18.99;26.50;95505.53;5010487;28;19983;-56
2022/07/29 00:40:52;;;;;;;;;;;;;;;19.00;25.76;95516.09;5009715;28;19944;-57
2022/07/29 00:43:17;;;;;;;;;;;;;;;19.00;27.01;95508.00;5010828;28;19951;-59
2022/07/29 00:45:43;;;;;;;;;;;;;;;19.01;26.32;95506.13;5005987;28;19929;-58
2022/07/29 00:48:08;;;;;;;;;;;;;;;19.01;26.30;95506.13;5009449;28;20329;-57
2022/07/29 00:50:33;;;;;;;;;;;;;;;18.98;26.59;95518.22;4994569;28;19924;-58
2022/07/29 00:52:59;;;;;;;;;;;;;;;18.94;25.90;95517.84;5012240;28;19928;-57
2022/07/29 00:55:24;;;;;;;;;;;;;;;18.93;26.51;95507.28;4990785;28;20122;-57
2022/07/29 00:57:49;;;;;;;;;;;;;;;18.74;26.51;95504.72;5014025;28;19929;-57
2022/07/29 01:00:17;;;;;;;;;;;;;;;18.79;26.09;95499.44;5005406;28;19964;-58
2022/07/29 01:02:42;;;;;;;;;;;;;;;18.73;26.88;95494.16;5011874;28;19914;-57
2022/07/29 01:05:07;;;;;;;;;;;;;;;18.75;27.69;95500.97;5017129;28;20233;-57
2022/07/29 01:07:33;;;;;;;;;;;;;;;18.60;27.90;95495.19;5017951;28;20192;-58
2022/07/29 01:09:59;;;;;;;;;;;;;;;18.54;26.55;95494.22;5012633;28;20230;-58
2022/07/29 01:12:24;;;;;;;;;;;;;;;18.68;26.23;95486.78;4993641;28;20008;-57
2022/07/29 01:14:49;;;;;;;;;;;;;;;18.63;25.73;95490.16;5009785;28;19933;-58
2022/07/29 01:17:17;;;;;;;;;;;;;;;18.44;27.20;95487.53;4994965;28;20019;-57
2022/07/29 01:20:03;;;;;;;;;;;;;;;18.46;26.29;95484.59;4995059;28;19948;-57
2022/07/29 01:22:31;;;;;;;;;;;;;;;18.26;26.96;95488.41;4994918;28;19944;-58
2022/07/29 01:25:14;;;;;;;;;;;;;;;18.39;26.93;95486.59;4991626;28;19973;-56
2022/07/29 01:27:49;;;;;;;;;;;;;;;18.31;26.55;95487.72;5006918;28;20234;-56
2022/07/29 01:30:14;;;;;;;;;;;;;;;18.35;26.73;95482.72;5012923;28;20447;-57
2022/07/29 01:32:39;;;;;;;;;;;;;;;18.37;26.47;95475.22;5007935;28;19925;-56
2022/07/29 01:35:06;;;;;;;;;;;;;;;18.34;26.33;95481.88;5006510;28;19918;-58
2022/07/29 01:37:45;;;;;;;;;;;;;;;18.47;26.06;95477.34;4991157;28;19929;-57
2022/07/29 01:40:20;;;;;;;;;;;;;;;18.45;27.48;95472.19;5005882;28;20201;-56
2022/07/29 01:42:47;;;;;;;;;;;;;;;18.38;26.29;95468.75;5000084;28;20019;-57
2022/07/29 01:45:16;;;;;;;;;;;;;;;18.52;25.78;95464.81;5007904;28;19932;-58
2022/07/29 01:48:00;;;;;;;;;;;;;;;18.46;25.99;95462.22;5009610;28;19968;-58
2022/07/29 01:50:48;;;;;;;;;;;;;;;18.50;25.87;95448.06;5012676;28;19979;-57
2022/07/29 01:53:14;;;;;;;;;;;;;;;18.56;26.22;95451.69;4999956;28;19921;-59
2022/07/29 01:55:40;;;;;;;;;;;;;;;18.58;25.69;95441.53;5016877;28;19924;-57
2022/07/29 01:58:05;;;;;;;;;;;;;;;18.55;25.96;95437.38;4992277;28;20353;-56
2022/07/29 02:00:31;;;;;;;;;;;;;;;18.54;26.49;95433.06;5016403;28;19925;-58
2022/07/29 02:02:56;;;;;;;;;;;;;;;18.52;25.81;95428.94;4990421;28;20005;-58
2022/07/29 02:05:22;;;;;;;;;;;;;;;18.52;25.95;95428.94;4996884;28;20023;-56
2022/07/29 02:07:48;;;;;;;;;;;;;;;18.53;25.86;95434.09;5017776;28;19917;-56
2022/07/29 02:10:13;;;;;;;;;;;;;;;18.42;25.57;95429.50;4996046;28;20011;-57
2022/07/29 02:12:38;;;;;;;;;;;;;;;18.17;27.82;95426.00;4991955;28;19922;-57
2022/07/29 02:15:04;;;;;;;;;;;;;;;18.25;26.24;95419.44;5012342;28;19977;-57
2022/07/29 02:17:33;;;;;;;;;;;;;;;18.40;26.67;95413.59;5007218;28;19933;-57
2022/07/29 02:19:59;;;;;;;;;;;;;;;18.27;26.15;95411.94;5011594;28;19925;-58
2022/07/29 02:22:25;;;;;;;;;;;;;;;18.44;26.31;95412.09;5013897;28;20214;-58
2022/07/29 02:24:50;;;;;;;;;;;;;;;18.35;26.32;95420.75;4990889;28;19944;-56
2022/07/29 02:27:15;;;;;;;;;;;;;;;18.34;26.13;95416.38;5017334;28;19964;-58
2022/07/29 02:29:41;;;;;;;;;;;;;;;18.36;27.17;95403.53;5018111;28;20002;-56
2022/07/29 02:32:06;;;;;;;;;;;;;;;18.38;26.85;95406.78;4988470;28;20142;-59
2022/07/29 02:34:31;;;;;;;;;;;;;;;18.18;29.11;95407.94;5014235;28;19965;-56
2022/07/29 02:36:56;;;;;;;;;;;;;;;18.17;27.56;95398.22;5003036;28;20071;-56
2022/07/29 02:39:22;;;;;;;;;;;;;;;18.22;27.53;95398.34;5018721;28;19955;-57
2022/07/29 02:41:48;;;;;;;;;;;;;;;18.24;26.98;95392.72;5013166;28;19957;-57
2022/07/29 02:44:15;;;;;;;;;;;;;;;18.29;27.71;95395.56;4993004;28;19935;-59
2022/07/29 02:46:45;;;;;;;;;;;;;;;18.28;27.17;95399.28;5005433;28;20001;-57
2022/07/29 02:49:15;;;;;;;;;;;;;;;18.28;27.22;95394.72;5006009;28;19924;-59
2022/07/29 02:51:49;;;;;;;;;;;;;;;18.24;27.09;95392.72;4987674;28;20035;-58
2022/07/29 02:54:19;;;;;;;;;;;;;;;18.22;26.81;95392.94;5007368;28;20427;-59
2022/07/29 02:56:44;;;;;;;;;;;;;;;18.02;27.10;95393.28;4986542;28;20138;-59
2022/07/29 02:59:10;;;;;;;;;;;;;;;18.00;26.88;95385.44;4987176;28;19952;-57
2022/07/29 03:01:35;;;;;;;;;;;;;;;17.95;27.27;95392.56;5002184;28;20189;-57
2022/07/29 03:04:01;;;;;;;;;;;;;;;18.00;26.86;95395.38;4987833;28;19918;-60
2022/07/29 03:06:27;;;;;;;;;;;;;;;18.04;26.62;95388.47;5005078;28;19928;-58
2022/07/29 03:08:52;;;;;;;;;;;;;;;18.01;27.03;95383.53;4996467;28;20314;-56
2022/07/29 03:11:17;;;;;;;;;;;;;;;17.87;27.34;95391.00;4992624;28;20004;-58
2022/07/29 03:13:43;;;;;;;;;;;;;;;17.71;27.63;95387.09;5017996;28;19964;-59
2022/07/29 03:16:08;;;;;;;;;;;;;;;17.76;27.30;95385.34;4991236;28;20286;-57
2022/07/29 03:18:33;;;;;;;;;;;;;;;17.64;27.54;95390.69;4988382;28;19929;-57
2022/07/29 03:20:59;;;;;;;;;;;;;;;17.62;27.81;95389.28;5007609;28;20398;-57
2022/07/29 03:23:25;;;;;;;;;;;;;;;17.43;28.32;95391.22;5008875;28;19921;-56
2022/07/29 03:25:51;;;;;;;;;;;;;;;17.34;29.30;95399.56;5004669;28;20162;-58
2022/07/29 03:28:16;;;;;;;;;;;;;;;17.13;30.89;95396.31;5007485;28;20436;-56
2022/07/29 03:30:41;;;;;;;;;;;;;;;16.97;29.35;95395.03;5005979;28;20181;-57
2022/07/29 03:33:06;;;;;;;;;;;;;;;16.94;29.67;95389.28;5015232;28;20378;-58
2022/07/29 03:35:32;;;;;;;;;;;;;;;16.99;28.61;95389.41;5016504;28;19924;-57
2022/07/29 03:37:57;;;;;;;;;;;;;;;16.84;29.25;95389.78;5008597;28;20551;-58
2022/07/29 03:40:25;;;;;;;;;;;;;;;16.87;28.72;95392.03;5004392;28;19921;-57
2022/07/29 03:42:51;;;;;;;;;;;;;;;16.88;28.86;95391.00;5002448;28;19955;-58
2022/07/29 03:45:17;;;;;;;;;;;;;;;16.83;28.61;95393.53;4990827;28;20418;-57
2022/07/29 03:47:43;;;;;;;;;;;;;;;16.89;28.71;95388.09;5004002;28;19917;-58
2022/07/29 03:50:08;;;;;;;;;;;;;;;16.92;28.64;95391.38;4985590;28;20584;-57
2022/07/29 03:52:33;;;;;;;;;;;;;;;16.75;28.85;95382.03;4983411;28;20173;-57
2022/07/29 03:54:59;;;;;;;;;;;;;;;16.75;29.09;95382.03;4994899;28;19985;-57
2022/07/29 03:57:24;;;;;;;;;;;;;;;16.73;29.00;95386.78;4986705;28;19945;-58
2022/07/29 03:59:50;;;;;;;;;;;;;;;16.79;28.72;95382.41;4989375;28;20636;-55
2022/07/29 04:02:15;;;;;;;;;;;;;;;16.84;28.75;95384.41;4985930;28;20001;-57
2022/07/29 04:04:41;;;;;;;;;;;;;;;16.73;30.63;95378.72;4988342;28;20052;-58
2022/07/29 04:07:06;;;;;;;;;;;;;;;16.63;29.36;95384.63;4986257;28;19952;-58
2022/07/29 04:09:31;;;;;;;;;;;;;;;16.55;29.75;95382.22;4986063;28;19961;-58
2022/07/29 04:11:56;;;;;;;;;;;;;;;16.58;29.79;95380.97;4984770;28;19918;-59
2022/07/29 04:14:22;;;;;;;;;;;;;;;16.52;29.33;95383.50;4989489;28;20375;-57
2022/07/29 04:16:47;;;;;;;;;;;;;;;16.69;28.92;95395.53;4994634;28;20508;-56
2022/07/29 04:19:12;;;;;;;;;;;;;;;16.69;30.02;95396.34;4988440;28;20322;-56
2022/07/29 04:21:38;;;;;;;;;;;;;;;16.69;29.20;95390.16;4987458;28;19980;-58
2022/07/29 04:24:03;;;;;;;;;;;;;;;16.42;29.63;95388.53;5006356;28;19928;-57
2022/07/29 04:26:29;;;;;;;;;;;;;;;16.48;30.59;95397.59;4985081;28;19928;-58
2022/07/29 04:28:54;;;;;;;;;;;;;;;16.62;29.39;95398.28;4986280;28;19928;-57
2022/07/29 04:31:19;;;;;;;;;;;;;;;16.59;29.91;95401.44;4996029;28;19924;-57
2022/07/29 04:33:44;;;;;;;;;;;;;;;16.65;31.13;95400.53;4990866;28;19980;-58
2022/07/29 04:36:10;;;;;;;;;;;;;;;16.67;29.81;95405.69;4996684;28;20418;-57
2022/07/29 04:38:36;;;;;;;;;;;;;;;16.72;29.61;95401.28;4990573;28;19930;-58
2022/07/29 04:41:01;;;;;;;;;;;;;;;16.84;29.50;95396.00;4992658;28;19933;-57
2022/07/29 04:43:26;;;;;;;;;;;;;;;16.96;29.25;95395.25;5008948;28;20077;-59
2022/07/29 04:45:52;;;;;;;;;;;;;;;17.01;29.01;95393.53;5007563;28;19979;-58
2022/07/29 04:48:17;;;;;;;;;;;;;;;17.17;29.09;95396.69;5018281;28;19921;-57
2022/07/29 04:50:44;;;;;;;;;;;;;;;17.39;28.62;95391.66;5010002;28;19988;-59
2022/07/29 04:53:09;;;;;;;;;;;;;;;17.44;29.40;95398.22;5008194;28;19928;-57
2022/07/29 04:55:34;;;;;;;;;;;;;;;17.44;29.10;95398.22;5013336;28;19921;-56
2022/07/29 04:58:00;;;;;;;;;;;;;;;17.63;28.70;95399.81;5006998;28;19926;-58
2022/07/29 05:00:25;;;;;;;;;;;;;;;17.79;28.45;95395.63;5016725;28;19925;-58
2022/07/29 05:02:50;;;;;;;;;;;;;;;18.02;29.02;95396.78;5007425;28;19980;-56
2022/07/29 05:05:15;;;;;;;;;;;;;;;17.91;28.32;95400.28;5008100;28;20178;-57
2022/07/29 05:07:41;;;;;;;;;;;;;;;18.12;29.07;95393.53;5007706;28;19928;-58
2022/07/29 05:10:06;;;;;;;;;;;;;;;18.39;29.08;95394.97;5008190;28;19925;-57
2022/07/29 05:12:31;;;;;;;;;;;;;;;18.49;28.33;95392.50;5006985;28;19929;-58
2022/07/29 05:14:56;;;;;;;;;;;;;;;18.49;28.23;95397.88;5008166;28;20594;-59
2022/07/29 05:17:22;;;;;;;;;;;;;;;18.31;28.38;95404.22;5007010;28;19921;-57
2022/07/29 05:19:47;;;;;;;;;;;;;;;18.52;28.55;95404.69;5011297;28;19925;-56
2022/07/29 05:22:12;;;;;;;;;;;;;;;18.82;27.25;95401.06;5016238;28;19922;-58
2022/07/29 05:24:37;;;;;;;;;;;;;;;18.96;26.92;95409.72;5014506;28;19932;-58
2022/07/29 05:27:03;;;;;;;;;;;;;;;19.15;26.81;95407.72;5012123;28;20032;-57
2022/07/29 05:29:28;;;;;;;;;;;;;;;19.06;27.29;95401.03;5007788;28;20481;-58
2022/07/29 05:31:53;;;;;;;;;;;;;;;19.17;27.60;95410.16;5013459;28;19921;-56
2022/07/29 05:34:19;;;;;;;;;;;;;;;19.16;26.97;95413.91;5012156;28;20141;-59
2022/07/29 05:36:44;;;;;;;;;;;;;;;19.27;27.14;95413.09;5007431;28;19963;-57
2022/07/29 05:39:10;;;;;;;;;;;;;;;19.40;27.52;95421.97;4990300;28;19956;-56
2022/07/29 05:41:35;;;;;;;;;;;;;;;19.49;26.72;95428.66;5007377;28;20306;-58
2022/07/29 05:44:00;;;;;;;;;;;;;;;19.67;26.84;95422.22;5009826;28;20377;-59
2022/07/29 05:46:25;;;;;;;;;;;;;;;19.68;26.81;95429.25;5013790;28;19925;-57
2022/07/29 05:48:51;;;;;;;;;;;;;;;19.95;26.34;95434.06;5007926;28;19918;-58
2022/07/29 05:51:16;;;;;;;;;;;;;;;20.00;26.34;95438.78;5006447;28;20064;-55
2022/07/29 05:53:41;;;;;;;;;;;;;;;20.38;26.05;95438.31;5016632;28;20448;-57
2022/07/29 05:56:07;;;;;;;;;;;;;;;20.65;25.38;95440.38;5009188;28;19995;-59
2022/07/29 05:58:32;;;;;;;;;;;;;;;20.90;25.73;95447.25;5006860;28;19925;-57
2022/07/29 06:00:59;;;;;;;;;;;;;;;21.08;25.00;95446.13;5020459;28;20385;-58
2022/07/29 06:03:24;;;;;;;;;;;;;;;21.37;25.65;95452.22;5014164;28;20056;-57
2022/07/29 06:05:49;;;;;;;;;;;;;;;21.65;23.85;95452.25;5007011;28;19957;-59
2022/07/29 06:08:15;;;;;;;;;;;;;;;21.75;24.29;95454.28;5004714;28;19975;-57
2022/07/29 06:10:40;;;;;;;;;;;;;;;21.94;24.22;95459.38;5013797;28;20345;-57
2022/07/29 06:13:05;;;;;;;;;;;;;;;22.17;23.75;95466.41;5003426;28;19932;-57
2022/07/29 06:15:30;;;;;;;;;;;;;;;22.22;24.15;95455.59;5006289;28;19968;-59
2022/07/29 06:17:56;;;;;;;;;;;;;;;22.15;24.48;95463.94;5002183;28;19984;-58
2022/07/29 06:20:21;;;;;;;;;;;;;;;22.26;24.26;95464.00;5003986;28;20378;-57
2022/07/29 06:22:47;;;;;;;;;;;;;;;22.34;24.10;95458.16;5007800;28;19972;-58
2022/07/29 06:25:12;;;;;;;;;;;;;;;22.43;24.03;95458.47;5008963;28;19968;-57
2022/07/29 06:27:37;;;;;;;;;;;;;;;22.54;23.92;95462.13;5003039;28;20023;-57
2022/07/29 06:30:03;;;;;;;;;;;;;;;22.35;24.21;95456.22;5009503;28;19988;-59
2022/07/29 06:32:28;;;;;;;;;;;;;;;22.21;24.72;95459.38;4988364;28;20336;-57
2022/07/29 06:34:53;;;;;;;;;;;;;;;22.25;24.51;95462.38;5008805;28;20321;-58
2022/07/29 06:37:18;;;;;;;;;;;;;;;22.20;24.85;95456.94;5007442;28;19964;-58
2022/07/29 06:39:44;;;;;;;;;;;;;;;22.19;24.39;95449.88;5004665;28;19968;-56
2022/07/29 06:42:09;;;;;;;;;;;;;;;22.34;24.24;95449.19;5006954;28;19929;-58
2022/07/29 06:44:34;;;;;;;;;;;;;;;22.49;24.28;95462.03;5009293;28;19972;-57
2022/07/29 06:47:00;;;;;;;;;;;;;;;22.44;24.31;95462.00;5010050;28;19952;-58
2022/07/29 06:49:26;;;;;;;;;;;;;;;22.69;24.30;95464.13;5006398;28;19931;-56
2022/07/29 06:51:53;;;;;;;;;;;;;;;22.72;24.10;95463.63;5001151;28;20402;-57
2022/07/29 06:54:19;;;;;;;;;;;;;;;22.87;24.09;95470.22;5002405;28;19929;-59
2022/07/29 06:56:44;;;;;;;;;;;;;;;22.89;24.17;95468.06;5001077;28;20118;-57
2022/07/29 06:59:09;;;;;;;;;;;;;;;22.96;23.88;95470.53;5009167;28;20532;-58
2022/07/29 07:01:36;;;;;;;;;;;;;;;22.72;24.45;95479.06;5002434;28;20532;-58
2022/07/29 07:04:01;;;;;;;;;;;;;;;22.78;24.02;95473.41;5011326;28;20017;-57
2022/07/29 07:06:26;;;;;;;;;;;;;;;22.59;24.17;95486.56;5003599;28;20020;-58
2022/07/29 07:08:51;;;;;;;;;;;;;;;23.00;23.65;95496.06;5000464;28;20662;-58
2022/07/29 07:11:17;;;;;;;;;;;;;;;23.15;23.61;95485.34;5000024;28;19936;-58
2022/07/29 07:13:42;;;;;;;;;;;;;;;23.29;23.30;95485.69;5000410;28;20137;-57
2022/07/29 07:16:07;;;;;;;;;;;;;;;22.20;23.94;95501.09;5005359;28;19965;-60
2022/07/29 07:18:32;;;;;;;;;;;;;;;22.28;24.88;95497.94;4983863;28;20397;-59
2022/07/29 07:20:58;;;;;;;;;;;;;;;22.79;24.53;95501.38;5005510;28;20378;-57
2022/07/29 07:23:23;;;;;;;;;;;;;;;22.89;23.53;95506.06;5004435;28;19988;-58
2022/07/29 07:25:48;;;;;;;;;;;;;;;23.45;23.16;95493.13;5011665;28;20521;-60
2022/07/29 07:28:13;;;;;;;;;;;;;;;23.60;23.16;95501.34;5000335;28;19932;-57
2022/07/29 07:30:39;;;;;;;;;;;;;;;23.67;23.02;95496.47;5002319;28;19921;-58
2022/07/29 07:33:04;;;;;;;;;;;;;;;24.03;22.94;95494.97;5004610;28;20453;-58
2022/07/29 07:35:29;;;;;;;;;;;;;;;24.18;22.55;95500.47;5001450;28;19932;-57
2022/07/29 07:37:55;;;;;;;;;;;;;;;24.22;22.94;95499.88;5007328;28;19926;-57
2022/07/29 07:40:20;;;;;;;;;;;;;;;24.24;22.79;95495.84;5002805;28;19925;-56
2022/07/29 07:42:45;;;;;;;;;;;;;;;24.68;22.75;95496.44;4999724;28;19925;-59
2022/07/29 07:45:11;;;;;;;;;;;;;;;24.77;21.92;95502.13;4999570;28;19925;-57
2022/07/29 07:47:37;;;;;;;;;;;;;;;24.70;22.32;95500.50;5008308;28;20202;-57
2022/07/29 07:50:03;;;;;;;;;;;;;;;23.33;23.83;95510.44;5001006;28;19984;-58
2022/07/29 07:52:28;;;;;;;;;;;;;;;22.74;24.38;95498.63;5001841;28;20406;-59
2022/07/29 07:54:53;;;;;;;;;;;;;;;23.46;24.02;95494.75;5004994;28;19972;-60
2022/07/29 07:57:19;;;;;;;;;;;;;;;24.11;23.11;95499.88;5008699;28;19975;-58
2022/07/29 07:59:44;;;;;;;;;;;;;;;24.16;23.11;95491.72;5001514;28;20018;-58
2022/07/29 08:02:09;;;;;;;;;;;;;;;23.69;23.27;95504.34;5000637;28;20488;-58
2022/07/29 08:04:34;;;;;;;;;;;;;;;23.68;23.49;95500.00;5013460;28;19929;-60
2022/07/29 08:07:00;;;;;;;;;;;;;;;24.11;22.82;95499.88;5009564;28;19929;-59
2022/07/29 08:09:26;;;;;;;;;;;;;;;24.31;22.95;95507.25;5008907;28;19949;-66
2022/07/29 08:11:51;;;;;;;;;;;;;;;24.43;22.96;95517.09;5017357;28;19914;-66
2022/07/29 08:14:16;;;;;;;;;;;;;;;24.13;23.14;95507.78;5006885;28;19925;-69
2022/07/29 08:16:42;;;;;;;;;;;;;;;24.25;23.23;95511.06;5008356;28;19917;-66
2022/07/29 08:19:07;;;;;;;;;;;;;;;24.35;22.90;95518.44;5009376;28;20249;-68
2022/07/29 08:21:32;;;;;;;;;;;;;;;24.06;23.62;95519.72;5017918;28;19921;-68
2022/07/29 08:26:49;;;;;;;;;;;;;;;24.24;23.17;95519.50;4991100;28;19928;-67
2022/07/29 08:29:14;;;;;;;;;;;;;;;24.20;23.23;95517.31;5008384;28;19921;-67
2022/07/29 08:31:39;;;;;;;;;;;;;;;24.12;23.21;95520.56;5009338;28;19976;-69
2022/07/29 08:34:05;;;;;;;;;;;;;;;23.94;23.51;95522.66;5008838;28;19918;-67
2022/07/29 08:36:30;;;;;;;;;;;;;;;24.02;23.64;95517.78;5008489;28;19917;-65
2022/07/29 08:38:55;;;;;;;;;;;;;;;24.19;23.30;95520.28;5010464;28;19952;-67
2022/07/29 08:41:21;;;;;;;;;;;;;;;24.12;23.55;95522.44;5008127;28;19955;-65
2022/07/29 08:43:47;;;;;;;;;;;;;;;24.41;23.18;95516.56;5019874;28;20308;-64
2022/07/29 08:46:12;;;;;;;;;;;;;;;24.10;23.73;95520.00;5008963;28;19929;-65
2022/07/29 08:48:37;;;;;;;;;;;;;;;24.31;23.10;95525.50;5011842;28;20340;-64
2022/07/29 08:51:02;;;;;;;;;;;;;;;24.73;23.57;95523.66;5009895;28;20409;-66
2022/07/29 08:53:28;;;;;;;;;;;;;;;24.51;23.46;95522.00;5013532;28;20420;-64
2022/07/29 08:55:53;;;;;;;;;;;;;;;24.80;22.85;95520.66;5007066;28;19975;-62
2022/07/29 08:58:18;;;;;;;;;;;;;;;25.10;22.96;95524.47;5007697;28;19948;-65
2022/07/29 09:00:45;;;;;;;;;;;;;;;25.42;22.65;95519.78;5007278;28;19923;-66
2022/07/29 09:03:12;;;;;;;;;;;;;;;25.47;22.85;95514.34;5007585;28;19923;-65
2022/07/29 09:05:37;;;;;;;;;;;;;;;25.65;22.24;95515.63;5007536;28;19975;-65
2022/07/29 09:08:02;;;;;;;;;;;;;;;25.48;21.87;95510.50;5008299;28;19921;-66
2022/07/29 09:10:28;;;;;;;;;;;;;;;25.52;23.06;95516.25;4999855;28;20019;-64
2022/07/29 09:12:56;;;;;;;;;;;;;;;25.17;22.77;95513.28;5010825;28;19918;-65
2022/07/29 09:15:21;;;;;;;;;;;;;;;25.34;22.35;95507.53;5008474;28;20374;-64
2022/07/29 09:17:47;;;;;;;;;;;;;;;25.62;22.24;95513.47;5006058;28;19925;-66
2022/07/29 09:20:14;;;;;;;;;;;;;;;25.77;22.08;95514.50;5010017;28;19921;-66
2022/07/29 09:22:39;;;;;;;;;;;;;;;25.99;22.32;95514.94;5013247;28;19971;-65
2022/07/29 09:25:04;;;;;;;;;;;;;;;26.67;21.44;95516.44;5007863;28;19941;-65
2022/07/29 09:27:30;;;;;;;;;;;;;;;26.95;21.06;95512.13;5008362;28;19957;-66
2022/07/29 09:30:05;;;;;;;;;;;;;;;27.30;20.96;95516.75;5016611;28;19925;-65
2022/07/29 09:32:30;;;;;;;;;;;;;;;27.50;21.35;95513.78;5007412;28;19949;-63
2022/07/29 09:35:15;;;;;;;;;;;;;;;27.70;21.01;95509.19;5007503;28;20382;-65
2022/07/29 09:37:40;;;;;;;;;;;;;;;27.73;20.84;95511.34;5008255;28;19917;-66
2022/07/29 09:40:13;;;;;;;;;;;;;;;27.57;20.49;95520.81;4990018;28;19917;-65
2022/07/29 09:42:38;;;;;;;;;;;;;;;27.72;20.38;95512.47;5007575;28;19929;-65
2022/07/29 09:45:03;;;;;;;;;;;;;;;27.84;20.61;95503.03;5016052;28;20201;-66
2022/07/29 09:47:42;;;;;;;;;;;;;;;27.58;20.27;95509.59;5010419;28;19978;-65
2022/07/29 09:50:07;;;;;;;;;;;;;;;28.14;20.33;95506.47;5011876;28;19918;-65
2022/07/29 09:52:32;;;;;;;;;;;;;;;28.13;20.26;95504.81;5011939;28;20428;-66
2022/07/29 09:55:07;;;;;;;;;;;;;;;28.44;19.84;95503.59;4990751;28;20420;-66
2022/07/29 09:57:33;;;;;;;;;;;;;;;27.32;21.17;95509.09;5006467;28;20004;-66
2022/07/29 10:00:09;;;;;;;;;;;;;;;27.70;20.79;95508.41;5010828;28;20415;-63
2022/07/29 10:02:35;;;;;;;;;;;;;;;27.88;20.54;95501.34;5012642;28;19925;-64
2022/07/29 10:05:00;;;;;;;;;;;;;;;27.98;20.66;95501.22;5013425;28;20264;-63
2022/07/29 10:07:26;;;;;;;;;;;;;;;28.36;19.94;95503.16;5009349;28;19921;-63
2022/07/29 10:09:52;;;;;;;;;;;;;;;28.48;19.99;95505.44;5018108;28;20348;-64
2022/07/29 10:12:17;;;;;;;;;;;;;;;28.67;19.44;95501.88;5013958;28;19927;-63
2022/07/29 10:14:42;;;;;;;;;;;;;;;29.15;18.97;95499.97;5014828;28;20161;-64
2022/07/29 10:17:08;;;;;;;;;;;;;;;28.71;18.79;95502.91;5009370;28;19975;-63
2022/07/29 10:19:34;;;;;;;;;;;;;;;29.21;18.82;95504.28;5013036;28;19928;-64
2022/07/29 10:21:59;;;;;;;;;;;;;;;29.05;19.33;95506.44;5008348;28;20336;-62
2022/07/29 10:24:25;;;;;;;;;;;;;;;29.29;19.00;95495.34;5012842;28;19921;-64
2022/07/29 10:26:51;;;;;;;;;;;;;;;29.44;18.52;95498.94;5012124;28;19968;-63
2022/07/29 10:29:16;;;;;;;;;;;;;;;29.57;18.15;95500.03;5012342;28;20360;-63
2022/07/29 10:31:44;;;;;;;;;;;;;;;29.88;18.20;95499.44;5011892;28;19924;-64
2022/07/29 10:34:09;;;;;;;;;;;;;;;29.75;17.92;95501.06;4998189;28;20226;-64
2022/07/29 10:36:54;;;;;;;;;;;;;;;30.30;18.24;95495.78;5009689;28;19983;-65
2022/07/29 10:39:38;;;;;;;;;;;;;;;30.48;16.96;95493.19;4995392;28;19960;-65
2022/07/29 10:42:24;;;;;;;;;;;;;;;30.43;17.78;95497.69;5006660;28;20266;-64
2022/07/29 10:44:49;;;;;;;;;;;;;;;30.62;17.54;95496.69;5013824;28;19925;-65
2022/07/29 10:47:24;;;;;;;;;;;;;;;30.66;17.62;95500.44;5010536;28;19925;-64
2022/07/29 10:49:59;;;;;;;;;;;;;;;30.43;18.05;95500.44;4988097;28;19918;-64
2022/07/29 10:52:27;;;;;;;;;;;;;;;30.48;17.80;95499.50;5006249;28;20201;-64
2022/07/29 10:54:53;;;;;;;;;;;;;;;30.56;17.99;95495.19;5007362;28;20014;-65
2022/07/29 10:57:21;;;;;;;;;;;;;;;30.31;18.29;95491.91;5015041;28;20012;-64
2022/07/29 10:59:47;;;;;;;;;;;;;;;31.00;18.63;95492.78;5009513;28;19925;-65
2022/07/29 11:02:31;;;;;;;;;;;;;;;31.11;17.97;95490.56;5009078;28;19943;-64
2022/07/29 11:04:56;;;;;;;;;;;;;;;31.17;17.82;95492.06;5005362;28;19922;-65
2022/07/29 11:07:22;;;;;;;;;;;;;;;29.34;19.36;95491.72;5005452;28;20017;-65
2022/07/29 11:10:05;;;;;;;;;;;;;;;30.17;18.81;95486.47;5017078;28;20023;-65
2022/07/29 11:12:37;;;;;;;;;;;;;;;31.39;17.85;95487.63;5011641;28;20520;-65
2022/07/29 11:15:06;;;;;;;;;;;;;;;31.03;17.18;95494.84;5008867;28;19983;-64
2022/07/29 11:17:51;;;;;;;;;;;;;;;31.05;17.88;95484.38;5005811;28;20323;-63
2022/07/29 11:20:31;;;;;;;;;;;;;;;31.38;17.17;95496.19;5007397;28;20440;-64
2022/07/29 11:22:57;;;;;;;;;;;;;;;31.44;16.99;95481.97;5011032;28;20012;-64
2022/07/29 11:25:22;;;;;;;;;;;;;;;30.11;18.47;95484.97;5006772;28;20366;-66
2022/07/29 11:27:48;;;;;;;;;;;;;;;30.29;17.77;95481.28;5011138;28;19917;-67
2022/07/29 11:30:13;;;;;;;;;;;;;;;30.54;17.57;95484.53;5007177;28;19928;-66
2022/07/29 11:32:42;;;;;;;;;;;;;;;30.88;17.42;95479.59;5016280;28;19952;-67
2022/07/29 11:35:11;;;;;;;;;;;;;;;31.24;16.80;95475.13;5004530;28;20441;-66
2022/07/29 11:37:36;;;;;;;;;;;;;;;31.95;16.09;95470.63;5004199;28;19929;-65
2022/07/29 11:40:04;;;;;;;;;;;;;;;32.33;17.15;95472.00;5010939;28;20146;-67
2022/07/29 11:42:37;;;;;;;;;;;;;;;32.42;16.30;95471.97;5016022;28;19926;-66
2022/07/29 11:45:06;;;;;;;;;;;;;;;32.53;16.40;95475.25;5004784;28;20555;-67
2022/07/29 11:48:00;;;;;;;;;;;;;;;32.11;16.20;95465.50;5015283;28;19921;-67
2022/07/29 11:50:27;;;;;;;;;;;;;;;32.27;16.38;95476.03;5006887;28;20366;-65
2022/07/29 11:52:52;;;;;;;;;;;;;;;32.63;15.91;95477.66;5005872;28;20396;-66
2022/07/29 11:55:22;;;;;;;;;;;;;;;32.36;16.19;95467.78;5016683;28;20023;-67
2022/07/29 11:57:54;;;;;;;;;;;;;;;32.31;16.27;95477.00;5003957;28;19913;-67
2022/07/29 12:00:26;;;;;;;;;;;;;;;32.64;16.19;95475.72;5004403;28;19952;-67
2022/07/29 12:02:52;;;;;;;;;;;;;;;32.14;16.35;95466.81;5004531;28;19936;-68
2022/07/29 12:05:17;;;;;;;;;;;;;;;32.10;16.66;95463.91;5004806;28;20436;-66
2022/07/29 12:07:42;;;;;;;;;;;;;;;32.41;16.26;95464.84;5004358;28;20095;-65
2022/07/29 12:10:08;;;;;;;;;;;;;;;32.40;16.40;95462.44;5004124;28;19924;-67
2022/07/29 12:12:34;;;;;;;;;;;;;;;32.18;16.89;95465.03;5004237;28;19917;-66
2022/07/29 12:15:10;;;;;;;;;;;;;;;30.56;18.24;95462.25;5005818;28;19948;-66
2022/07/29 12:17:35;;;;;;;;;;;;;;;28.75;19.87;95462.06;5004724;28;19948;-68
2022/07/29 12:20:02;;;;;;;;;;;;;;;29.97;19.66;95461.09;5005882;28;20381;-69
2022/07/29 12:22:36;;;;;;;;;;;;;;;30.14;18.98;95454.94;5009011;28;19917;-68
2022/07/29 12:25:02;;;;;;;;;;;;;;;30.72;18.52;95454.44;5006525;28;20435;-67
2022/07/29 12:27:28;;;;;;;;;;;;;;;30.95;17.92;95463.47;5007011;28;20145;-67
2022/07/29 12:29:57;;;;;;;;;;;;;;;31.32;17.50;95454.28;4989423;28;19955;-66
2022/07/29 12:32:23;;;;;;;;;;;;;;;31.43;17.36;95455.63;5007502;28;20234;-67
2022/07/29 12:34:48;;;;;;;;;;;;;;;31.12;17.91;95455.63;4993590;28;19921;-65
2022/07/29 12:37:13;;;;;;;;;;;;;;;31.25;17.34;95460.25;4993394;28;19921;-67
2022/07/29 12:39:39;;;;;;;;;;;;;;;31.55;16.98;95460.50;4990129;28;20004;-68
2022/07/29 12:42:13;;;;;;;;;;;;;;;31.29;17.29;95461.22;5006994;28;19967;-66
2022/07/29 12:44:46;;;;;;;;;;;;;;;31.12;17.56;95461.09;5007240;28;20014;-67
2022/07/29 12:47:11;;;;;;;;;;;;;;;30.74;17.97;95446.72;5012391;28;20171;-66
2022/07/29 12:49:36;;;;;;;;;;;;;;;31.10;17.21;95440.25;5012353;28;19936;-66